sensor_id;sensor_type;location;lat;lon;timestamp;P1;durP1;ratioP1;P2;durP2;ratioP2
1699;SDS011;847;48.058;7.810;2024-01-11T00:00:08;31.95;;;21.35;;
1699;SDS011;847;48.058;7.810;2024-01-11T00:02:36;36.75;;;22.92;;
1699;SDS011;847;48.058;7.810;2024-01-11T00:05:03;37.92;;;21.70;;
1699;SDS011;847;48.058;7.810;2024-01-11T00:07:31;34.13;;;21.67;;
1699;SDS011;847;48.058;7.810;2024-01-11T00:09:58;37.75;;;22.73;;
1699;SDS011;847;48.058;7.810;2024-01-11T00:12:26;34.40;;;22.63;;
1699;SDS011;847;48.058;7.810;2024-01-11T00:14:53;33.08;;;22.75;;
1699;SDS011;847;48.058;7.810;2024-01-11T00:17:19;40.03;;;22.20;;
1699;SDS011;847;48.058;7.810;2024-01-11T00:19:50;33.35;;;22.25;;
1699;SDS011;847;48.058;7.810;2024-01-11T00:22:17;35.83;;;24.35;;
1699;SDS011;847;48.058;7.810;2024-01-11T00:24:44;43.63;;;27.08;;
1699;SDS011;847;48.058;7.810;2024-01-11T00:27:11;49.75;;;26.90;;
1699;SDS011;847;48.058;7.810;2024-01-11T00:29:37;43.08;;;24.95;;
1699;SDS011;847;48.058;7.810;2024-01-11T00:32:04;45.97;;;27.05;;
1699;SDS011;847;48.058;7.810;2024-01-11T00:34:31;38.67;;;24.70;;
1699;SDS011;847;48.058;7.810;2024-01-11T00:37:00;39.95;;;26.20;;
1699;SDS011;847;48.058;7.810;2024-01-11T00:39:26;38.78;;;24.15;;
1699;SDS011;847;48.058;7.810;2024-01-11T00:41:54;37.78;;;24.17;;
1699;SDS011;847;48.058;7.810;2024-01-11T00:44:21;33.35;;;23.75;;
1699;SDS011;847;48.058;7.810;2024-01-11T00:46:48;36.00;;;23.52;;
1699;SDS011;847;48.058;7.810;2024-01-11T00:49:14;32.38;;;22.17;;
1699;SDS011;847;48.058;7.810;2024-01-11T00:51:41;37.70;;;22.63;;
1699;SDS011;847;48.058;7.810;2024-01-11T00:54:09;33.83;;;22.80;;
1699;SDS011;847;48.058;7.810;2024-01-11T00:56:36;40.83;;;22.33;;
1699;SDS011;847;48.058;7.810;2024-01-11T00:59:03;36.90;;;22.02;;
1699;SDS011;847;48.058;7.810;2024-01-11T01:01:30;33.22;;;22.85;;
1699;SDS011;847;48.058;7.810;2024-01-11T01:03:57;33.22;;;20.63;;
1699;SDS011;847;48.058;7.810;2024-01-11T01:06:24;39.13;;;23.73;;
1699;SDS011;847;48.058;7.810;2024-01-11T01:08:51;39.67;;;22.67;;
1699;SDS011;847;48.058;7.810;2024-01-11T01:11:19;43.72;;;24.55;;
1699;SDS011;847;48.058;7.810;2024-01-11T01:13:46;42.33;;;27.48;;
1699;SDS011;847;48.058;7.810;2024-01-11T01:16:12;41.40;;;23.23;;
1699;SDS011;847;48.058;7.810;2024-01-11T01:18:40;42.65;;;24.08;;
1699;SDS011;847;48.058;7.810;2024-01-11T01:21:06;33.63;;;22.48;;
1699;SDS011;847;48.058;7.810;2024-01-11T01:23:33;32.65;;;21.85;;
1699;SDS011;847;48.058;7.810;2024-01-11T01:26:00;32.95;;;22.05;;
1699;SDS011;847;48.058;7.810;2024-01-11T01:28:28;34.22;;;21.63;;
1699;SDS011;847;48.058;7.810;2024-01-11T01:30:54;36.28;;;23.00;;
1699;SDS011;847;48.058;7.810;2024-01-11T01:33:21;32.30;;;22.30;;
1699;SDS011;847;48.058;7.810;2024-01-11T01:35:48;36.88;;;23.42;;
1699;SDS011;847;48.058;7.810;2024-01-11T01:38:15;31.42;;;21.92;;
1699;SDS011;847;48.058;7.810;2024-01-11T01:40:44;34.13;;;22.63;;
1699;SDS011;847;48.058;7.810;2024-01-11T01:43:10;34.08;;;22.20;;
1699;SDS011;847;48.058;7.810;2024-01-11T01:45:39;34.20;;;23.25;;
1699;SDS011;847;48.058;7.810;2024-01-11T01:48:06;37.50;;;21.80;;
1699;SDS011;847;48.058;7.810;2024-01-11T01:50:33;32.63;;;22.33;;
1699;SDS011;847;48.058;7.810;2024-01-11T01:53:01;42.25;;;24.05;;
1699;SDS011;847;48.058;7.810;2024-01-11T01:55:28;41.08;;;24.05;;
1699;SDS011;847;48.058;7.810;2024-01-11T01:57:55;38.35;;;23.20;;
1699;SDS011;847;48.058;7.810;2024-01-11T02:00:22;37.42;;;22.63;;
1699;SDS011;847;48.058;7.810;2024-01-11T02:02:51;37.65;;;23.73;;
1699;SDS011;847;48.058;7.810;2024-01-11T02:05:18;41.20;;;22.08;;
1699;SDS011;847;48.058;7.810;2024-01-11T02:07:45;35.20;;;22.90;;
1699;SDS011;847;48.058;7.810;2024-01-11T02:10:12;38.10;;;22.40;;
1699;SDS011;847;48.058;7.810;2024-01-11T02:12:39;36.25;;;21.75;;
1699;SDS011;847;48.058;7.810;2024-01-11T02:15:07;38.28;;;19.88;;
1699;SDS011;847;48.058;7.810;2024-01-11T02:17:34;31.67;;;21.80;;
1699;SDS011;847;48.058;7.810;2024-01-11T02:20:03;33.53;;;22.30;;
1699;SDS011;847;48.058;7.810;2024-01-11T02:22:32;33.22;;;21.95;;
1699;SDS011;847;48.058;7.810;2024-01-11T02:25:03;30.10;;;21.33;;
1699;SDS011;847;48.058;7.810;2024-01-11T02:27:30;33.53;;;20.33;;
1699;SDS011;847;48.058;7.810;2024-01-11T02:29:57;36.47;;;20.67;;
1699;SDS011;847;48.058;7.810;2024-01-11T02:32:24;33.25;;;19.77;;
1699;SDS011;847;48.058;7.810;2024-01-11T02:34:51;34.08;;;20.17;;
1699;SDS011;847;48.058;7.810;2024-01-11T02:37:18;32.63;;;20.25;;
1699;SDS011;847;48.058;7.810;2024-01-11T02:39:45;35.20;;;20.95;;
1699;SDS011;847;48.058;7.810;2024-01-11T02:42:13;35.05;;;20.60;;
1699;SDS011;847;48.058;7.810;2024-01-11T02:44:40;33.38;;;19.75;;
1699;SDS011;847;48.058;7.810;2024-01-11T02:47:07;32.75;;;22.17;;
1699;SDS011;847;48.058;7.810;2024-01-11T02:49:34;33.22;;;21.08;;
1699;SDS011;847;48.058;7.810;2024-01-11T02:52:01;32.60;;;22.30;;
1699;SDS011;847;48.058;7.810;2024-01-11T02:54:28;38.53;;;21.67;;
1699;SDS011;847;48.058;7.810;2024-01-11T02:56:55;36.63;;;20.90;;
1699;SDS011;847;48.058;7.810;2024-01-11T02:59:23;35.22;;;20.17;;
1699;SDS011;847;48.058;7.810;2024-01-11T03:01:50;37.63;;;22.30;;
1699;SDS011;847;48.058;7.810;2024-01-11T03:04:17;33.05;;;21.58;;
1699;SDS011;847;48.058;7.810;2024-01-11T03:06:44;29.95;;;20.40;;
1699;SDS011;847;48.058;7.810;2024-01-11T03:09:10;28.42;;;19.90;;
1699;SDS011;847;48.058;7.810;2024-01-11T03:11:37;32.70;;;20.20;;
1699;SDS011;847;48.058;7.810;2024-01-11T03:14:04;27.80;;;18.10;;
1699;SDS011;847;48.058;7.810;2024-01-11T03:16:32;38.78;;;21.65;;
1699;SDS011;847;48.058;7.810;2024-01-11T03:18:58;30.55;;;20.48;;
1699;SDS011;847;48.058;7.810;2024-01-11T03:21:25;30.15;;;21.65;;
1699;SDS011;847;48.058;7.810;2024-01-11T03:23:52;30.23;;;19.38;;
1699;SDS011;847;48.058;7.810;2024-01-11T03:26:19;32.75;;;21.70;;
1699;SDS011;847;48.058;7.810;2024-01-11T03:28:45;30.60;;;21.17;;
1699;SDS011;847;48.058;7.810;2024-01-11T03:31:14;30.35;;;19.85;;
1699;SDS011;847;48.058;7.810;2024-01-11T03:33:43;36.28;;;20.73;;
1699;SDS011;847;48.058;7.810;2024-01-11T03:36:10;36.67;;;22.58;;
1699;SDS011;847;48.058;7.810;2024-01-11T03:38:37;32.97;;;21.20;;
1699;SDS011;847;48.058;7.810;2024-01-11T03:41:07;30.58;;;19.38;;
1699;SDS011;847;48.058;7.810;2024-01-11T03:43:34;36.03;;;21.27;;
1699;SDS011;847;48.058;7.810;2024-01-11T03:46:01;36.70;;;20.83;;
1699;SDS011;847;48.058;7.810;2024-01-11T03:48:28;37.70;;;22.90;;
1699;SDS011;847;48.058;7.810;2024-01-11T03:50:57;31.42;;;20.88;;
1699;SDS011;847;48.058;7.810;2024-01-11T03:53:24;34.50;;;21.35;;
1699;SDS011;847;48.058;7.810;2024-01-11T03:55:50;28.45;;;20.77;;
1699;SDS011;847;48.058;7.810;2024-01-11T03:58:20;36.00;;;21.02;;
1699;SDS011;847;48.058;7.810;2024-01-11T04:00:47;33.03;;;21.10;;
1699;SDS011;847;48.058;7.810;2024-01-11T04:03:15;33.15;;;21.50;;
1699;SDS011;847;48.058;7.810;2024-01-11T04:05:42;33.53;;;24.38;;
1699;SDS011;847;48.058;7.810;2024-01-11T04:08:10;30.40;;;21.23;;
1699;SDS011;847;48.058;7.810;2024-01-11T04:10:36;35.95;;;21.30;;
1699;SDS011;847;48.058;7.810;2024-01-11T04:13:03;33.90;;;20.65;;
1699;SDS011;847;48.058;7.810;2024-01-11T04:15:30;34.63;;;22.23;;
1699;SDS011;847;48.058;7.810;2024-01-11T04:17:57;33.65;;;21.58;;
1699;SDS011;847;48.058;7.810;2024-01-11T04:20:24;39.72;;;22.55;;
1699;SDS011;847;48.058;7.810;2024-01-11T04:22:52;36.53;;;22.80;;
1699;SDS011;847;48.058;7.810;2024-01-11T04:25:20;34.40;;;21.98;;
1699;SDS011;847;48.058;7.810;2024-01-11T04:27:47;32.25;;;20.40;;
1699;SDS011;847;48.058;7.810;2024-01-11T04:30:14;33.35;;;21.20;;
1699;SDS011;847;48.058;7.810;2024-01-11T04:32:40;33.55;;;21.00;;
1699;SDS011;847;48.058;7.810;2024-01-11T04:35:07;35.60;;;21.27;;
1699;SDS011;847;48.058;7.810;2024-01-11T04:37:35;34.03;;;21.88;;
1699;SDS011;847;48.058;7.810;2024-01-11T04:40:02;33.13;;;20.95;;
1699;SDS011;847;48.058;7.810;2024-01-11T04:42:30;32.60;;;21.17;;
1699;SDS011;847;48.058;7.810;2024-01-11T04:44:57;34.60;;;21.10;;
1699;SDS011;847;48.058;7.810;2024-01-11T04:47:24;33.30;;;21.33;;
1699;SDS011;847;48.058;7.810;2024-01-11T04:49:50;32.92;;;21.42;;
1699;SDS011;847;48.058;7.810;2024-01-11T04:52:17;30.88;;;20.83;;
1699;SDS011;847;48.058;7.810;2024-01-11T04:54:44;32.65;;;20.67;;
1699;SDS011;847;48.058;7.810;2024-01-11T04:57:11;34.78;;;20.92;;
1699;SDS011;847;48.058;7.810;2024-01-11T04:59:39;34.88;;;19.63;;
1699;SDS011;847;48.058;7.810;2024-01-11T05:02:05;34.60;;;21.27;;
1699;SDS011;847;48.058;7.810;2024-01-11T05:04:32;34.33;;;20.23;;
1699;SDS011;847;48.058;7.810;2024-01-11T05:06:59;28.42;;;20.23;;
1699;SDS011;847;48.058;7.810;2024-01-11T05:09:26;31.45;;;20.80;;
1699;SDS011;847;48.058;7.810;2024-01-11T05:11:52;27.50;;;20.60;;
1699;SDS011;847;48.058;7.810;2024-01-11T05:14:19;37.05;;;21.70;;
1699;SDS011;847;48.058;7.810;2024-01-11T05:16:47;30.30;;;19.55;;
1699;SDS011;847;48.058;7.810;2024-01-11T05:19:15;30.48;;;20.10;;
1699;SDS011;847;48.058;7.810;2024-01-11T05:21:42;38.28;;;22.13;;
1699;SDS011;847;48.058;7.810;2024-01-11T05:24:08;33.00;;;20.33;;
1699;SDS011;847;48.058;7.810;2024-01-11T05:26:35;28.65;;;20.88;;
1699;SDS011;847;48.058;7.810;2024-01-11T05:29:02;34.25;;;21.77;;
1699;SDS011;847;48.058;7.810;2024-01-11T05:31:30;37.00;;;19.80;;
1699;SDS011;847;48.058;7.810;2024-01-11T05:33:58;31.98;;;19.42;;
1699;SDS011;847;48.058;7.810;2024-01-11T05:36:25;30.85;;;19.73;;
1699;SDS011;847;48.058;7.810;2024-01-11T05:38:52;33.63;;;19.98;;
1699;SDS011;847;48.058;7.810;2024-01-11T05:41:18;40.13;;;21.75;;
1699;SDS011;847;48.058;7.810;2024-01-11T05:43:45;34.35;;;21.10;;
1699;SDS011;847;48.058;7.810;2024-01-11T05:46:12;28.75;;;18.08;;
1699;SDS011;847;48.058;7.810;2024-01-11T05:48:39;30.15;;;20.45;;
1699;SDS011;847;48.058;7.810;2024-01-11T05:51:07;33.20;;;19.02;;
1699;SDS011;847;48.058;7.810;2024-01-11T05:53:34;31.83;;;19.38;;
1699;SDS011;847;48.058;7.810;2024-01-11T05:56:01;27.48;;;19.00;;
1699;SDS011;847;48.058;7.810;2024-01-11T05:58:28;27.15;;;19.00;;
1699;SDS011;847;48.058;7.810;2024-01-11T06:00:54;32.15;;;20.23;;
1699;SDS011;847;48.058;7.810;2024-01-11T06:03:22;31.95;;;20.25;;
1699;SDS011;847;48.058;7.810;2024-01-11T06:05:48;26.63;;;18.15;;
1699;SDS011;847;48.058;7.810;2024-01-11T06:08:16;38.80;;;21.40;;
1699;SDS011;847;48.058;7.810;2024-01-11T06:10:43;39.55;;;21.55;;
1699;SDS011;847;48.058;7.810;2024-01-11T06:13:10;33.10;;;19.63;;
1699;SDS011;847;48.058;7.810;2024-01-11T06:15:37;33.78;;;20.55;;
1699;SDS011;847;48.058;7.810;2024-01-11T06:18:04;33.47;;;21.10;;
1699;SDS011;847;48.058;7.810;2024-01-11T06:20:31;32.92;;;20.45;;
1699;SDS011;847;48.058;7.810;2024-01-11T06:22:58;35.90;;;20.38;;
1699;SDS011;847;48.058;7.810;2024-01-11T06:25:26;35.53;;;21.83;;
1699;SDS011;847;48.058;7.810;2024-01-11T06:27:53;35.97;;;22.02;;
1699;SDS011;847;48.058;7.810;2024-01-11T06:30:20;33.38;;;20.80;;
1699;SDS011;847;48.058;7.810;2024-01-11T06:32:47;30.05;;;21.05;;
1699;SDS011;847;48.058;7.810;2024-01-11T06:35:13;36.20;;;21.50;;
1699;SDS011;847;48.058;7.810;2024-01-11T06:37:40;37.08;;;22.63;;
1699;SDS011;847;48.058;7.810;2024-01-11T06:40:07;34.20;;;19.45;;
1699;SDS011;847;48.058;7.810;2024-01-11T06:42:35;38.80;;;21.88;;
1699;SDS011;847;48.058;7.810;2024-01-11T06:45:02;47.80;;;23.60;;
1699;SDS011;847;48.058;7.810;2024-01-11T06:47:29;33.15;;;21.77;;
1699;SDS011;847;48.058;7.810;2024-01-11T06:49:56;35.55;;;21.40;;
1699;SDS011;847;48.058;7.810;2024-01-11T06:52:24;151.10;;;68.45;;
1699;SDS011;847;48.058;7.810;2024-01-11T06:54:51;52.65;;;29.55;;
1699;SDS011;847;48.058;7.810;2024-01-11T06:57:18;41.08;;;23.77;;
1699;SDS011;847;48.058;7.810;2024-01-11T06:59:46;36.40;;;22.08;;
1699;SDS011;847;48.058;7.810;2024-01-11T07:02:13;36.83;;;23.67;;
1699;SDS011;847;48.058;7.810;2024-01-11T07:04:43;35.38;;;21.83;;
1699;SDS011;847;48.058;7.810;2024-01-11T07:07:10;41.17;;;22.23;;
1699;SDS011;847;48.058;7.810;2024-01-11T07:09:38;32.47;;;20.23;;
1699;SDS011;847;48.058;7.810;2024-01-11T07:12:04;35.80;;;21.98;;
1699;SDS011;847;48.058;7.810;2024-01-11T07:14:31;34.53;;;21.85;;
1699;SDS011;847;48.058;7.810;2024-01-11T07:17:00;40.33;;;22.65;;
1699;SDS011;847;48.058;7.810;2024-01-11T07:19:27;33.70;;;21.58;;
1699;SDS011;847;48.058;7.810;2024-01-11T07:21:54;40.35;;;22.00;;
1699;SDS011;847;48.058;7.810;2024-01-11T07:24:20;36.05;;;20.42;;
1699;SDS011;847;48.058;7.810;2024-01-11T07:26:47;33.03;;;23.25;;
1699;SDS011;847;48.058;7.810;2024-01-11T07:29:14;39.38;;;22.65;;
1699;SDS011;847;48.058;7.810;2024-01-11T07:31:41;40.22;;;22.27;;
1699;SDS011;847;48.058;7.810;2024-01-11T07:34:09;38.78;;;22.92;;
1699;SDS011;847;48.058;7.810;2024-01-11T07:36:36;40.90;;;23.27;;
1699;SDS011;847;48.058;7.810;2024-01-11T07:39:03;34.90;;;21.65;;
1699;SDS011;847;48.058;7.810;2024-01-11T07:41:31;37.60;;;21.75;;
1699;SDS011;847;48.058;7.810;2024-01-11T07:43:57;37.72;;;23.17;;
1699;SDS011;847;48.058;7.810;2024-01-11T07:46:25;40.58;;;23.60;;
1699;SDS011;847;48.058;7.810;2024-01-11T07:48:54;36.53;;;23.20;;
1699;SDS011;847;48.058;7.810;2024-01-11T07:51:23;43.47;;;24.23;;
1699;SDS011;847;48.058;7.810;2024-01-11T07:53:50;40.97;;;23.92;;
1699;SDS011;847;48.058;7.810;2024-01-11T07:56:16;45.30;;;25.42;;
1699;SDS011;847;48.058;7.810;2024-01-11T07:58:43;49.42;;;25.60;;
1699;SDS011;847;48.058;7.810;2024-01-11T08:01:10;45.53;;;26.77;;
1699;SDS011;847;48.058;7.810;2024-01-11T08:03:37;43.97;;;26.70;;
1699;SDS011;847;48.058;7.810;2024-01-11T08:06:09;55.10;;;29.63;;
1699;SDS011;847;48.058;7.810;2024-01-11T08:08:38;54.08;;;30.75;;
1699;SDS011;847;48.058;7.810;2024-01-11T08:11:05;67.35;;;34.03;;
1699;SDS011;847;48.058;7.810;2024-01-11T08:13:33;49.65;;;29.67;;
1699;SDS011;847;48.058;7.810;2024-01-11T08:16:00;42.80;;;28.05;;
1699;SDS011;847;48.058;7.810;2024-01-11T08:18:28;46.90;;;25.05;;
1699;SDS011;847;48.058;7.810;2024-01-11T08:20:55;48.22;;;28.60;;
1699;SDS011;847;48.058;7.810;2024-01-11T08:23:22;41.65;;;24.92;;
1699;SDS011;847;48.058;7.810;2024-01-11T08:25:50;39.53;;;24.27;;
1699;SDS011;847;48.058;7.810;2024-01-11T08:28:18;39.53;;;22.85;;
1699;SDS011;847;48.058;7.810;2024-01-11T08:30:45;37.72;;;24.20;;
1699;SDS011;847;48.058;7.810;2024-01-11T08:33:12;31.17;;;21.48;;
1699;SDS011;847;48.058;7.810;2024-01-11T08:35:39;34.60;;;22.92;;
1699;SDS011;847;48.058;7.810;2024-01-11T08:38:06;36.33;;;23.63;;
1699;SDS011;847;48.058;7.810;2024-01-11T08:40:33;33.97;;;23.00;;
1699;SDS011;847;48.058;7.810;2024-01-11T08:43:04;38.97;;;24.98;;
1699;SDS011;847;48.058;7.810;2024-01-11T08:45:32;40.85;;;23.05;;
1699;SDS011;847;48.058;7.810;2024-01-11T08:47:59;35.63;;;23.83;;
1699;SDS011;847;48.058;7.810;2024-01-11T08:50:26;33.97;;;22.17;;
1699;SDS011;847;48.058;7.810;2024-01-11T08:52:54;35.78;;;21.50;;
1699;SDS011;847;48.058;7.810;2024-01-11T08:55:21;36.30;;;22.95;;
1699;SDS011;847;48.058;7.810;2024-01-11T08:57:48;35.78;;;21.05;;
1699;SDS011;847;48.058;7.810;2024-01-11T09:00:16;39.00;;;22.70;;
1699;SDS011;847;48.058;7.810;2024-01-11T09:02:45;37.15;;;23.63;;
1699;SDS011;847;48.058;7.810;2024-01-11T09:05:13;48.35;;;29.50;;
1699;SDS011;847;48.058;7.810;2024-01-11T09:07:40;52.60;;;28.17;;
1699;SDS011;847;48.058;7.810;2024-01-11T09:10:07;51.53;;;31.05;;
1699;SDS011;847;48.058;7.810;2024-01-11T09:12:36;52.03;;;31.55;;
1699;SDS011;847;48.058;7.810;2024-01-11T09:15:03;51.20;;;30.88;;
1699;SDS011;847;48.058;7.810;2024-01-11T09:17:31;61.30;;;38.10;;
1699;SDS011;847;48.058;7.810;2024-01-11T09:19:58;52.88;;;33.03;;
1699;SDS011;847;48.058;7.810;2024-01-11T09:22:28;66.13;;;34.10;;
1699;SDS011;847;48.058;7.810;2024-01-11T09:24:55;42.33;;;26.90;;
1699;SDS011;847;48.058;7.810;2024-01-11T09:27:22;46.25;;;27.50;;
1699;SDS011;847;48.058;7.810;2024-01-11T09:29:48;44.28;;;26.98;;
1699;SDS011;847;48.058;7.810;2024-01-11T09:32:15;48.40;;;29.88;;
1699;SDS011;847;48.058;7.810;2024-01-11T09:34:43;58.00;;;33.00;;
1699;SDS011;847;48.058;7.810;2024-01-11T09:37:10;43.25;;;27.02;;
1699;SDS011;847;48.058;7.810;2024-01-11T09:39:37;40.65;;;25.60;;
1699;SDS011;847;48.058;7.810;2024-01-11T09:42:05;52.75;;;33.65;;
1699;SDS011;847;48.058;7.810;2024-01-11T09:44:34;39.63;;;26.70;;
1699;SDS011;847;48.058;7.810;2024-01-11T09:47:02;45.90;;;25.70;;
1699;SDS011;847;48.058;7.810;2024-01-11T09:49:34;44.50;;;26.60;;
1699;SDS011;847;48.058;7.810;2024-01-11T09:52:04;54.42;;;33.42;;
1699;SDS011;847;48.058;7.810;2024-01-11T09:54:33;51.33;;;27.90;;
1699;SDS011;847;48.058;7.810;2024-01-11T09:57:01;39.58;;;27.52;;
1699;SDS011;847;48.058;7.810;2024-01-11T09:59:29;45.72;;;28.20;;
1699;SDS011;847;48.058;7.810;2024-01-11T10:01:58;40.13;;;26.13;;
1699;SDS011;847;48.058;7.810;2024-01-11T10:04:25;47.40;;;29.48;;
1699;SDS011;847;48.058;7.810;2024-01-11T10:06:52;38.28;;;25.83;;
1699;SDS011;847;48.058;7.810;2024-01-11T10:09:22;42.88;;;26.65;;
1699;SDS011;847;48.058;7.810;2024-01-11T10:11:49;41.22;;;27.15;;
1699;SDS011;847;48.058;7.810;2024-01-11T10:14:16;44.03;;;27.48;;
1699;SDS011;847;48.058;7.810;2024-01-11T10:16:42;41.63;;;26.73;;
1699;SDS011;847;48.058;7.810;2024-01-11T10:19:10;42.55;;;25.98;;
1699;SDS011;847;48.058;7.810;2024-01-11T10:21:38;41.10;;;25.63;;
1699;SDS011;847;48.058;7.810;2024-01-11T10:24:05;45.25;;;27.63;;
1699;SDS011;847;48.058;7.810;2024-01-11T10:26:34;55.60;;;33.92;;
1699;SDS011;847;48.058;7.810;2024-01-11T10:29:02;64.07;;;36.45;;
1699;SDS011;847;48.058;7.810;2024-01-11T10:31:31;97.68;;;45.25;;
1699;SDS011;847;48.058;7.810;2024-01-11T10:33:59;89.25;;;47.22;;
1699;SDS011;847;48.058;7.810;2024-01-11T10:36:26;70.57;;;37.65;;
1699;SDS011;847;48.058;7.810;2024-01-11T10:38:57;121.70;;;58.70;;
1699;SDS011;847;48.058;7.810;2024-01-11T10:41:26;51.78;;;32.47;;
1699;SDS011;847;48.058;7.810;2024-01-11T10:43:59;42.83;;;27.48;;
1699;SDS011;847;48.058;7.810;2024-01-11T10:46:29;49.88;;;30.95;;
1699;SDS011;847;48.058;7.810;2024-01-11T10:49:00;43.55;;;27.48;;
1699;SDS011;847;48.058;7.810;2024-01-11T10:51:33;49.67;;;30.55;;
1699;SDS011;847;48.058;7.810;2024-01-11T10:53:59;52.33;;;33.15;;
1699;SDS011;847;48.058;7.810;2024-01-11T10:56:27;52.53;;;33.47;;
1699;SDS011;847;48.058;7.810;2024-01-11T10:58:55;48.55;;;27.40;;
1699;SDS011;847;48.058;7.810;2024-01-11T11:01:25;46.58;;;26.40;;
1699;SDS011;847;48.058;7.810;2024-01-11T11:03:52;51.92;;;34.53;;
1699;SDS011;847;48.058;7.810;2024-01-11T11:06:21;48.17;;;27.83;;
1699;SDS011;847;48.058;7.810;2024-01-11T11:08:49;47.05;;;29.25;;
1699;SDS011;847;48.058;7.810;2024-01-11T11:11:18;66.25;;;37.78;;
1699;SDS011;847;48.058;7.810;2024-01-11T11:13:49;57.67;;;35.42;;
1699;SDS011;847;48.058;7.810;2024-01-11T11:16:18;45.15;;;27.05;;
1699;SDS011;847;48.058;7.810;2024-01-11T11:18:46;63.22;;;40.45;;
1699;SDS011;847;48.058;7.810;2024-01-11T11:21:13;47.30;;;29.80;;
1699;SDS011;847;48.058;7.810;2024-01-11T11:23:41;43.25;;;26.45;;
1699;SDS011;847;48.058;7.810;2024-01-11T11:26:14;40.30;;;26.08;;
1699;SDS011;847;48.058;7.810;2024-01-11T11:28:42;56.03;;;31.77;;
1699;SDS011;847;48.058;7.810;2024-01-11T11:31:10;48.60;;;28.48;;
1699;SDS011;847;48.058;7.810;2024-01-11T11:33:37;46.22;;;27.77;;
1699;SDS011;847;48.058;7.810;2024-01-11T11:36:05;40.47;;;26.88;;
1699;SDS011;847;48.058;7.810;2024-01-11T11:38:38;43.63;;;27.05;;
1699;SDS011;847;48.058;7.810;2024-01-11T11:41:05;41.95;;;29.42;;
1699;SDS011;847;48.058;7.810;2024-01-11T11:43:33;48.47;;;30.50;;
1699;SDS011;847;48.058;7.810;2024-01-11T11:46:01;52.85;;;29.77;;
1699;SDS011;847;48.058;7.810;2024-01-11T11:48:47;55.05;;;31.98;;
1699;SDS011;847;48.058;7.810;2024-01-11T11:51:17;53.90;;;32.20;;
1699;SDS011;847;48.058;7.810;2024-01-11T11:53:46;48.05;;;30.42;;
1699;SDS011;847;48.058;7.810;2024-01-11T11:56:13;47.38;;;28.08;;
1699;SDS011;847;48.058;7.810;2024-01-11T11:58:42;47.72;;;28.48;;
1699;SDS011;847;48.058;7.810;2024-01-11T12:01:10;52.08;;;30.60;;
1699;SDS011;847;48.058;7.810;2024-01-11T12:03:38;47.75;;;32.22;;
1699;SDS011;847;48.058;7.810;2024-01-11T12:06:07;45.00;;;29.50;;
1699;SDS011;847;48.058;7.810;2024-01-11T12:08:36;44.63;;;29.45;;
1699;SDS011;847;48.058;7.810;2024-01-11T12:11:08;47.70;;;30.00;;
1699;SDS011;847;48.058;7.810;2024-01-11T12:13:35;46.70;;;30.23;;
1699;SDS011;847;48.058;7.810;2024-01-11T12:16:02;48.35;;;29.23;;
1699;SDS011;847;48.058;7.810;2024-01-11T12:18:29;50.35;;;30.60;;
1699;SDS011;847;48.058;7.810;2024-01-11T12:20:56;46.60;;;30.83;;
1699;SDS011;847;48.058;7.810;2024-01-11T12:23:23;42.90;;;29.88;;
1699;SDS011;847;48.058;7.810;2024-01-11T12:25:51;47.80;;;29.75;;
1699;SDS011;847;48.058;7.810;2024-01-11T12:28:18;64.50;;;31.73;;
1699;SDS011;847;48.058;7.810;2024-01-11T12:30:45;49.53;;;31.00;;
1699;SDS011;847;48.058;7.810;2024-01-11T12:33:12;51.78;;;29.95;;
1699;SDS011;847;48.058;7.810;2024-01-11T12:35:39;46.38;;;31.27;;
1699;SDS011;847;48.058;7.810;2024-01-11T12:38:06;51.38;;;31.60;;
1699;SDS011;847;48.058;7.810;2024-01-11T12:40:34;49.67;;;32.33;;
1699;SDS011;847;48.058;7.810;2024-01-11T12:43:04;49.35;;;30.40;;
1699;SDS011;847;48.058;7.810;2024-01-11T12:45:33;44.25;;;28.45;;
1699;SDS011;847;48.058;7.810;2024-01-11T12:48:02;47.55;;;28.85;;
1699;SDS011;847;48.058;7.810;2024-01-11T12:50:34;45.20;;;28.65;;
1699;SDS011;847;48.058;7.810;2024-01-11T12:53:06;48.17;;;29.30;;
1699;SDS011;847;48.058;7.810;2024-01-11T12:55:33;56.65;;;32.10;;
1699;SDS011;847;48.058;7.810;2024-01-11T12:58:06;43.85;;;27.58;;
1699;SDS011;847;48.058;7.810;2024-01-11T13:00:34;41.28;;;29.60;;
1699;SDS011;847;48.058;7.810;2024-01-11T13:03:01;43.65;;;28.10;;
1699;SDS011;847;48.058;7.810;2024-01-11T13:05:28;44.17;;;27.27;;
1699;SDS011;847;48.058;7.810;2024-01-11T13:08:00;46.15;;;29.40;;
1699;SDS011;847;48.058;7.810;2024-01-11T13:10:31;47.53;;;27.58;;
1699;SDS011;847;48.058;7.810;2024-01-11T13:12:58;45.63;;;29.38;;
1699;SDS011;847;48.058;7.810;2024-01-11T13:15:27;46.47;;;29.27;;
1699;SDS011;847;48.058;7.810;2024-01-11T13:17:57;40.90;;;26.50;;
1699;SDS011;847;48.058;7.810;2024-01-11T13:20:29;52.53;;;32.10;;
1699;SDS011;847;48.058;7.810;2024-01-11T13:25:46;53.90;;;33.20;;
1699;SDS011;847;48.058;7.810;2024-01-11T13:28:14;42.90;;;27.40;;
1699;SDS011;847;48.058;7.810;2024-01-11T13:30:45;61.90;;;36.33;;
1699;SDS011;847;48.058;7.810;2024-01-11T13:33:13;42.80;;;28.52;;
1699;SDS011;847;48.058;7.810;2024-01-11T13:35:42;56.23;;;33.50;;
1699;SDS011;847;48.058;7.810;2024-01-11T13:38:10;42.73;;;28.37;;
1699;SDS011;847;48.058;7.810;2024-01-11T13:40:37;45.57;;;29.30;;
1699;SDS011;847;48.058;7.810;2024-01-11T13:43:05;43.92;;;30.95;;
1699;SDS011;847;48.058;7.810;2024-01-11T13:45:32;47.63;;;30.33;;
1699;SDS011;847;48.058;7.810;2024-01-11T13:48:02;46.10;;;29.38;;
1699;SDS011;847;48.058;7.810;2024-01-11T13:50:29;45.38;;;28.60;;
1699;SDS011;847;48.058;7.810;2024-01-11T13:52:57;44.28;;;27.70;;
1699;SDS011;847;48.058;7.810;2024-01-11T13:55:24;78.47;;;48.50;;
1699;SDS011;847;48.058;7.810;2024-01-11T13:57:52;46.35;;;30.35;;
1699;SDS011;847;48.058;7.810;2024-01-11T14:00:20;44.63;;;28.43;;
1699;SDS011;847;48.058;7.810;2024-01-11T14:02:47;40.77;;;27.13;;
1699;SDS011;847;48.058;7.810;2024-01-11T14:05:15;48.17;;;29.10;;
1699;SDS011;847;48.058;7.810;2024-01-11T14:07:43;45.95;;;29.95;;
1699;SDS011;847;48.058;7.810;2024-01-11T14:10:10;48.77;;;30.70;;
1699;SDS011;847;48.058;7.810;2024-01-11T14:12:38;47.13;;;30.23;;
1699;SDS011;847;48.058;7.810;2024-01-11T14:15:07;46.97;;;30.98;;
1699;SDS011;847;48.058;7.810;2024-01-11T14:17:37;51.47;;;30.07;;
1699;SDS011;847;48.058;7.810;2024-01-11T14:20:06;47.27;;;30.77;;
1699;SDS011;847;48.058;7.810;2024-01-11T14:22:39;55.90;;;30.40;;
1699;SDS011;847;48.058;7.810;2024-01-11T14:25:07;55.23;;;37.97;;
1699;SDS011;847;48.058;7.810;2024-01-11T14:27:36;49.37;;;32.83;;
1699;SDS011;847;48.058;7.810;2024-01-11T14:30:05;55.10;;;35.83;;
1699;SDS011;847;48.058;7.810;2024-01-11T14:32:32;46.90;;;29.77;;
1699;SDS011;847;48.058;7.810;2024-01-11T14:35:00;48.00;;;34.40;;
1699;SDS011;847;48.058;7.810;2024-01-11T14:37:29;46.63;;;28.83;;
1699;SDS011;847;48.058;7.810;2024-01-11T14:39:58;52.70;;;30.40;;
1699;SDS011;847;48.058;7.810;2024-01-11T14:42:25;43.87;;;28.60;;
1699;SDS011;847;48.058;7.810;2024-01-11T14:44:51;51.17;;;28.97;;
1699;SDS011;847;48.058;7.810;2024-01-11T14:47:18;45.10;;;30.43;;
1699;SDS011;847;48.058;7.810;2024-01-11T14:49:45;41.40;;;27.80;;
1699;SDS011;847;48.058;7.810;2024-01-11T14:52:12;44.53;;;28.70;;
1699;SDS011;847;48.058;7.810;2024-01-11T14:54:39;43.20;;;27.73;;
1699;SDS011;847;48.058;7.810;2024-01-11T14:57:07;40.70;;;27.40;;
1699;SDS011;847;48.058;7.810;2024-01-11T14:59:34;52.97;;;29.20;;
1699;SDS011;847;48.058;7.810;2024-01-11T15:02:01;43.60;;;27.17;;
1699;SDS011;847;48.058;7.810;2024-01-11T15:04:27;43.80;;;27.07;;